createdAt,value
2023-03-06T00:01:48.695Z,12863.79
2023-03-06T00:06:54.129Z,12823.63
2023-03-06T00:11:57.613Z,12752.17
2023-03-06T00:17:01.057Z,12529.04
2023-03-06T00:22:05.950Z,12403.81
2023-03-06T00:27:10.017Z,11939.01
2023-03-06T00:32:18.963Z,12120.89
2023-03-06T00:37:25.377Z,12192.24
2023-03-06T00:42:32.778Z,12219.14
2023-03-06T00:47:36.279Z,12299.19
2023-03-06T00:52:42.070Z,12340.70
2023-03-06T00:57:48.671Z,12278.71
2023-03-06T01:02:53.702Z,12266.99
2023-03-06T01:08:00.290Z,12266.17
2023-03-06T01:13:06.562Z,12391.11
2023-03-06T01:18:12.431Z,12342.04
2023-03-06T01:23:19.301Z,12341.58
2023-03-06T01:28:22.881Z,12367.10
2023-03-06T01:33:28.563Z,12460.29
2023-03-06T01:38:36.115Z,12392.38
2023-03-06T01:43:42.306Z,12449.46
2023-03-06T01:48:49.703Z,12421.37
2023-03-06T01:53:59.292Z,12492.06
2023-03-06T01:59:03.737Z,12508.86
2023-03-06T02:04:10.217Z,12501.65
2023-03-06T02:09:15.631Z,12489.39
2023-03-06T02:14:21.266Z,12471.93
2023-03-06T02:19:34.034Z,12502.71
2023-03-06T02:24:45.245Z,12529.02
2023-03-06T02:29:50.232Z,12432.97
2023-03-06T02:34:58.334Z,12391.67
2023-03-06T02:40:12.269Z,12473.05
2023-03-06T02:45:23.217Z,12446.51
2023-03-06T02:50:28.967Z,12494.04
2023-03-06T02:55:32.728Z,12505.99
2023-03-06T03:00:40.489Z,12500.35
2023-03-06T03:05:46.144Z,12371.19
2023-03-06T03:10:57.410Z,12386.67
2023-03-06T03:16:09.475Z,12276.03
2023-03-06T03:21:13.977Z,12130.96
2023-03-06T03:26:22.669Z,12168.73
2023-03-06T03:31:35.339Z,12136.88
2023-03-06T03:36:42.417Z,12249.32
2023-03-06T03:41:49.360Z,12206.42
2023-03-06T03:46:54.608Z,12153.38
2023-03-06T03:51:59.763Z,12195.72
2023-03-06T03:57:06.355Z,12359.32
2023-03-06T04:02:14.929Z,12450.45
2023-03-06T04:07:27.620Z,12424.72
2023-03-06T04:12:33.638Z,12378.04
2023-03-06T04:17:41.805Z,12405.57
2023-03-06T04:22:53.206Z,12464.62
2023-03-06T04:27:59.624Z,12420.20
2023-03-06T04:33:08.283Z,12412.26
2023-03-06T04:38:14.877Z,12412.66
2023-03-06T04:43:18.573Z,12408.58
2023-03-06T04:48:25.591Z,12430.18
2023-03-06T04:53:29.097Z,12410.42
2023-03-06T04:58:32.553Z,12441.56
2023-03-06T05:03:39.782Z,12491.28
2023-03-06T05:08:43.214Z,12529.25
2023-03-06T05:13:46.705Z,12575.21
2023-03-06T05:18:56.238Z,12486.37
2023-03-06T05:23:59.726Z,12345.75
2023-03-06T05:29:03.185Z,12406.89
2023-03-06T05:34:14.176Z,12404.41
2023-03-06T05:39:17.969Z,12453.61
2023-03-06T05:44:24.546Z,12499.02
2023-03-06T05:49:34.001Z,12484.47
2023-03-06T05:54:38.135Z,12509.28
2023-03-06T05:59:41.537Z,12533.73
2023-03-06T06:04:51.190Z,12592.79
2023-03-06T06:09:57.960Z,12619.56
2023-03-06T06:15:01.455Z,12588.88
2023-03-06T06:20:10.411Z,12584.91
2023-03-06T06:25:14.096Z,12554.35
2023-03-06T06:30:20.363Z,12264.26
2023-03-06T06:35:25.177Z,12202.05
2023-03-06T06:40:31.012Z,7629.92
2023-03-06T06:45:34.545Z,12755.98
2023-03-06T06:50:39.466Z,12467.01
2023-03-06T06:55:43.062Z,12372.55
2023-03-06T07:03:45.782Z,31.28
2023-03-06T07:08:51.613Z,32.68
2023-03-06T07:13:56.124Z,31.77
2023-03-06T07:19:03.064Z,33.74
2023-03-06T07:24:11.918Z,32.65
2023-03-06T07:29:15.571Z,32.97
2023-03-06T07:34:22.731Z,31.71
2023-03-06T07:39:28.077Z,31.80
2023-03-06T07:44:31.880Z,31.33
2023-03-06T07:49:36.729Z,34.94
2023-03-06T07:54:40.236Z,36.33
2023-03-06T07:59:43.670Z,34.35
2023-03-06T08:04:54.382Z,31.75
2023-03-06T08:10:02.636Z,31.78
2023-03-06T08:15:10.169Z,32.15
2023-03-06T08:20:18.679Z,34.23
2023-03-06T08:25:22.141Z,31.39
2023-03-06T08:30:25.653Z,29.22
2023-03-06T08:35:30.637Z,29.55
2023-03-06T08:40:34.577Z,29.87
2023-03-06T08:45:38.082Z,30.38
2023-03-06T08:50:45.332Z,29.01
2023-03-06T08:55:48.989Z,27.72
2023-03-06T09:00:52.701Z,26.68
2023-03-06T09:05:57.511Z,36.20
2023-03-06T09:11:06.006Z,28.78
2023-03-06T09:16:09.688Z,25.64
2023-03-06T09:21:14.627Z,22.75
2023-03-06T09:26:21.147Z,24.61
2023-03-06T09:31:27.580Z,20.47
2023-03-06T09:36:49.338Z,18.86
2023-03-06T09:41:58.670Z,18.56
2023-03-06T09:47:27.638Z,21.07
2023-03-06T09:52:37.555Z,17.87
2023-03-06T09:57:44.091Z,17.70
2023-03-06T10:02:56.997Z,17.49
2023-03-06T10:08:12.530Z,17.00
2023-03-06T10:13:22.050Z,15.63
2023-03-06T10:18:25.507Z,17.92
2023-03-06T10:23:43.536Z,17.13
2023-03-06T10:28:58.474Z,14.70
2023-03-06T10:34:13.596Z,15.83
2023-03-06T10:39:22.166Z,15.94
2023-03-06T10:44:26.042Z,14.74
2023-03-06T10:49:35.009Z,17.31
2023-03-06T10:54:41.048Z,16.68
2023-03-06T10:59:52.171Z,16.34
2023-03-06T11:04:57.264Z,19.70
2023-03-06T11:10:08.897Z,59.59
2023-03-06T11:15:21.186Z,29.81
2023-03-06T11:20:26.572Z,25.99
2023-03-06T11:25:35.249Z,31.68
2023-03-06T11:30:46.376Z,22.15
2023-03-06T11:35:57.293Z,26.54
2023-03-06T11:41:09.333Z,32.16
2023-03-06T11:46:19.845Z,46.25
2023-03-06T11:51:26.466Z,94.92
2023-03-06T11:56:45.513Z,29.90
2023-03-06T12:01:56.481Z,22.93
2023-03-06T12:07:11.836Z,16.16
2023-03-06T12:12:31.887Z,19.29
2023-03-06T12:17:50.943Z,13.15
2023-03-06T12:23:02.468Z,14.77
2023-03-06T12:28:33.007Z,13.19
2023-03-06T12:33:44.718Z,14.20
2023-03-06T12:39:01.509Z,15.16
2023-03-06T12:44:35.316Z,16.25
2023-03-06T12:49:42.259Z,17.96
2023-03-06T12:54:46.527Z,16.87
2023-03-06T12:59:56.352Z,14.87
2023-03-06T13:05:16.796Z,13.95
2023-03-06T13:10:23.644Z,15.90
2023-03-06T13:15:38.351Z,13.30
2023-03-06T13:20:45.203Z,14.33
2023-03-06T13:25:50.312Z,16.30
2023-03-06T13:30:56.570Z,17.63
2023-03-06T13:36:00.928Z,18.41
2023-03-06T13:41:23.032Z,19.98
2023-03-06T13:46:30.988Z,22.44
2023-03-06T13:51:39.417Z,25.05
2023-03-06T13:56:59.988Z,25.00
2023-03-06T14:02:20.215Z,26.74
2023-03-06T14:07:28.223Z,27.16
2023-03-06T14:12:34.958Z,27.70
2023-03-06T14:17:49.882Z,28.87
2023-03-06T14:22:53.311Z,30.01
2023-03-06T14:28:05.716Z,30.35
2023-03-06T14:33:27.780Z,40.94
2023-03-06T14:38:37.810Z,32.49
2023-03-06T14:43:41.221Z,32.08
2023-03-06T14:48:50.780Z,31.76
2023-03-06T14:53:55.394Z,32.38
2023-03-06T14:59:01.325Z,32.15
2023-03-06T15:04:14.114Z,32.39
2023-03-06T15:09:21.610Z,33.81
2023-03-06T15:14:31.101Z,32.90
2023-03-06T15:19:42.940Z,33.58
2023-03-06T15:24:48.732Z,34.46
2023-03-06T15:29:55.192Z,33.38
2023-03-06T15:35:25.588Z,33.54
2023-03-06T15:40:32.034Z,33.88
2023-03-06T15:45:37.785Z,34.73
2023-03-06T15:50:43.701Z,47.73
2023-03-06T15:55:48.910Z,36.54
2023-03-06T16:00:52.534Z,36.95
2023-03-06T16:05:56.053Z,39.42
2023-03-06T16:11:00.942Z,38.52
2023-03-06T16:16:07.637Z,37.91
2023-03-06T16:21:15.083Z,37.90
2023-03-06T16:26:30.175Z,38.02
2023-03-06T16:31:33.830Z,38.66
2023-03-06T16:36:37.399Z,38.47
2023-03-06T16:41:42.329Z,38.21
2023-03-06T16:46:47.272Z,39.81
2023-03-06T16:51:50.876Z,39.11
2023-03-06T16:56:56.098Z,40.55
2023-03-06T17:02:00.101Z,49.37
2023-03-06T17:07:04.549Z,41.12
2023-03-06T17:12:10.074Z,41.94
2023-03-06T17:17:13.577Z,40.54
2023-03-06T17:22:17.982Z,39.70
2023-03-06T17:27:24.420Z,39.02
2023-03-06T17:32:32.443Z,38.64
2023-03-06T17:37:38.104Z,37.82
2023-03-06T17:42:43.022Z,37.70
2023-03-06T17:47:48.968Z,37.04
2023-03-06T17:52:56.136Z,36.08
2023-03-06T17:58:14.504Z,34.02
2023-03-06T18:03:53.066Z,33.70
2023-03-06T18:09:07.947Z,33.71
2023-03-06T18:14:11.574Z,34.95
2023-03-06T18:19:17.800Z,31.95
2023-03-06T18:24:23.443Z,33.82
2023-03-06T18:29:26.896Z,34.97
2023-03-06T18:34:30.520Z,28.90
2023-03-06T18:39:35.344Z,29.66
2023-03-06T18:44:41.381Z,33.10
2023-03-06T18:49:49.415Z,33.45
2023-03-06T18:54:54.300Z,30.80
2023-03-06T18:59:57.774Z,31.26
2023-03-06T19:05:01.227Z,31.22
2023-03-06T19:10:06.686Z,31.77
2023-03-06T19:15:12.432Z,32.06
2023-03-06T19:20:18.367Z,31.36
2023-03-06T19:25:26.304Z,29.77
2023-03-06T19:30:30.098Z,28.95
2023-03-06T19:35:36.165Z,28.53
2023-03-06T19:40:41.018Z,27.08
2023-03-06T19:45:45.063Z,26.99
2023-03-06T19:50:48.658Z,26.98
2023-03-06T19:56:07.226Z,26.35
2023-03-06T20:01:12.050Z,25.82
2023-03-06T20:06:19.877Z,24.86
2023-03-06T20:11:26.440Z,24.48
2023-03-06T20:16:30.750Z,24.93
2023-03-06T20:21:37.944Z,25.14
2023-03-06T20:26:46.337Z,25.26
2023-03-06T20:31:50.114Z,25.44
2023-03-06T20:36:53.574Z,24.97
2023-03-06T20:41:59.147Z,23.91
2023-03-06T20:47:02.660Z,23.08
2023-03-06T20:52:06.205Z,21.69
2023-03-06T20:57:14.281Z,20.28
2023-03-06T21:02:18.007Z,19.51
2023-03-06T21:07:24.712Z,19.99
2023-03-06T21:12:29.884Z,18.98
2023-03-06T21:17:33.347Z,19.18
2023-03-06T21:22:38.719Z,20.03
2023-03-06T21:27:43.823Z,20.04
2023-03-06T21:32:47.414Z,21.21
2023-03-06T21:37:50.994Z,20.64
2023-03-06T21:42:55.764Z,21.37
2023-03-06T21:48:01.861Z,21.52
2023-03-06T21:53:05.300Z,22.87
2023-03-06T21:58:10.180Z,23.54
2023-03-06T22:03:13.585Z,24.62
2023-03-06T22:08:21.182Z,26.29
2023-03-06T22:13:26.057Z,26.79
2023-03-06T22:18:29.601Z,28.65
2023-03-06T22:23:32.971Z,29.41
2023-03-06T22:28:37.857Z,30.37
2023-03-06T22:33:41.980Z,31.55
2023-03-06T22:38:46.842Z,32.18
2023-03-06T22:43:55.999Z,33.68
2023-03-06T22:49:02.674Z,33.51
2023-03-06T22:54:06.666Z,33.71
2023-03-06T22:59:11.400Z,34.80
2023-03-06T23:04:15.019Z,35.40
2023-03-06T23:09:22.525Z,35.42
2023-03-06T23:14:49.635Z,35.53
2023-03-06T23:20:13.349Z,33.33
2023-03-06T23:25:37.618Z,33.70
2023-03-06T23:30:42.936Z,32.71
2023-03-06T23:35:46.749Z,32.89
2023-03-06T23:40:50.428Z,33.84
2023-03-06T23:45:55.342Z,36.99
2023-03-06T23:51:06.127Z,38.54
2023-03-06T23:56:12.482Z,39.21
